Weather History for K2D5 - November, 2013

Change the Weather History Date:

Tuesday, November 5, 2013

  Actual Average (KABR) Record (KABR)
Temperature  
Mean Temperature 30 °F 35 °F  
Max Temperature 37 °F 46 °F 79 °F (1904)
Min Temperature 23 °F 24 °F -6 °F (2003)
Degree Days  
Heating Degree Days 35 30  
Month to date heating degree days 144  
Since 1 July heating degree days 1035  
Cooling Degree Days 0 0  
Month to date cooling degree days 0  
Year to date cooling degree days 525  
Moisture  
Dew Point 20 °F    
Average Humidity 69    
Maximum Humidity 93    
Minimum Humidity 38    
Precipitation  
Precipitation 0.00 in 0.03 in 0.70 in (1895)
Month to date precipitation 0.15  
Year to date precipitation 20.62  
Snow  
Snow 0.00 in - - ()
Month to date snowfall  
Since 1 July snowfall  
Snow Depth -    
Sea Level Pressure  
Sea Level Pressure 30.15 in    
Wind  
Wind Speed 6 mph (WSW)    
Max Wind Speed 12 mph    
Max Gust Speed -    
Visibility 2 miles    
Events Fog    
T = Trace of Precipitation, MM = Missing Value Source: NWS Daily Summary

Daily Weather History Graph

Daily Weather History Graph

Search for Another Location

Airport or City:

Trip Planner

Search our weather history database for the weather conditions in past years. The results will help you decide how hot, cold, wet, or windy it might be!

Date:

Astronomy

Nov. 05, 2013 Rise Set
Actual Time 7:19 AM CST 5:11 PM CST
Civil Twilight 6:47 AM CST 5:43 PM CST
Nautical Twilight 6:11 AM CST 6:19 PM CST
Astronomical Twilight 5:36 AM CST 6:54 PM CST
Moon 9:40 AM CST (11/5) 7:09 PM CST (11/5)
Length of Visible Light 10h 55m
Length of Day
9h 52m
Waxing Crescent, 7% of the Moon is Illuminated
Nov 5
Waxing Crescent
Nov 9
First Quarter
Nov 17
Full
Nov 25
Last Quarter
Dec 2
New

Hourly Weather History & Observations

Time (CST) Temp. Windchill Dew Point Humidity Pressure Visibility Wind Dir Wind Speed Gust Speed Precip Events Conditions
12:15 AM 23.0 °F 17.0 °F 19.4 °F 86% 30.11 in 2.5 mi SW 4.6 mph - N/A   Clear
12:35 AM 23.0 °F 13.9 °F 21.2 °F 93% 30.12 in 3.0 mi South 8.1 mph - N/A   Clear
12:55 AM 23.0 °F 13.9 °F 21.2 °F 93% 30.12 in 3.0 mi South 8.1 mph - N/A   Clear
1:15 AM 23.0 °F 12.4 °F 21.2 °F 93% 30.13 in 2.5 mi SSW 10.4 mph - N/A   Clear
1:35 AM 26.6 °F 16.2 °F 21.2 °F 80% 30.13 in 6.0 mi SSW 11.5 mph - N/A   Haze
1:55 AM 26.6 °F 17.5 °F 21.2 °F 80% 30.13 in 5.0 mi SW 9.2 mph - N/A   Haze
2:15 AM 28.4 °F 20.4 °F 21.2 °F 74% 30.14 in 3.0 mi SW 8.1 mph - N/A   Haze
2:35 AM 28.4 °F 20.4 °F 21.2 °F 74% 30.14 in 5.0 mi SW 8.1 mph - N/A   Haze
2:55 AM 28.4 °F 20.4 °F 21.2 °F 74% 30.14 in 6.0 mi WSW 8.1 mph - N/A   Haze
3:15 AM 30.2 °F 23.4 °F 19.4 °F 64% 30.14 in 3.0 mi SW 6.9 mph - N/A   Haze
3:35 AM 28.4 °F 21.2 °F 19.4 °F 69% 30.14 in 3.0 mi SW 6.9 mph - N/A   Haze
3:55 AM 28.4 °F 19.7 °F 19.4 °F 69% 30.14 in 3.0 mi South 9.2 mph - N/A   Haze
4:15 AM 26.6 °F 16.8 °F 23.0 °F 86% 30.15 in 4.0 mi SSW 10.4 mph - N/A   Clear
4:35 AM 26.6 °F 18.2 °F 24.8 °F 93% 30.16 in 4.0 mi South 8.1 mph - N/A   Clear
4:55 AM 26.6 °F 18.2 °F 24.8 °F 93% 30.16 in 4.0 mi SSW 8.1 mph - N/A   Clear
5:15 AM 26.6 °F 18.2 °F 23.0 °F 86% 30.16 in 3.0 mi SSW 8.1 mph - N/A   Clear
5:35 AM 26.6 °F 19.1 °F 23.0 °F 86% 30.16 in 2.5 mi SSW 6.9 mph - N/A   Clear
5:55 AM 24.8 °F 16.9 °F 23.0 °F 93% 30.16 in 3.0 mi SSW 6.9 mph - N/A   Clear
6:15 AM 24.8 °F 16.1 °F 23.0 °F 93% 30.16 in 3.0 mi SSW 8.1 mph - N/A   Clear
6:35 AM 24.8 °F 19.1 °F 23.0 °F 93% 30.16 in 2.5 mi SW 4.6 mph - N/A   Clear
6:55 AM 24.8 °F 19.1 °F 23.0 °F 93% 30.17 in 1.2 mi West 4.6 mph - N/A   Clear
7:15 AM 24.8 °F - 23.0 °F 93% 30.16 in 1.5 mi Calm Calm - N/A   Clear
7:35 AM 24.8 °F - 23.0 °F 93% 30.16 in 0.2 mi Calm Calm - N/A Fog Light Freezing Fog
7:55 AM 23.0 °F 18.4 °F 21.2 °F 93% 30.17 in 0.5 mi South 3.5 mph - N/A Fog Light Freezing Fog
8:15 AM 24.8 °F 20.5 °F 23.0 °F 93% 30.18 in 2.5 mi West 3.5 mph - N/A   Clear
8:35 AM 26.6 °F 20.0 °F 21.2 °F 80% 30.18 in 1.5 mi WNW 5.8 mph - N/A   Haze
8:55 AM 26.6 °F - 21.2 °F 80% 30.20 in 1.0 mi Calm Calm - N/A   Haze
9:15 AM 28.4 °F 21.2 °F 21.2 °F 74% 30.20 in 2.0 mi West 6.9 mph - N/A   Haze
9:35 AM 28.4 °F 19.7 °F 19.4 °F 69% 30.20 in 4.0 mi West 9.2 mph - N/A   Haze
9:55 AM 28.4 °F 20.4 °F 17.6 °F 64% 30.20 in 4.0 mi WNW 8.1 mph - N/A   Haze
10:15 AM 30.2 °F 21.9 °F 17.6 °F 60% 30.20 in 3.0 mi WNW 9.2 mph - N/A   Haze
10:35 AM 32.0 °F 24.8 °F 17.6 °F 55% 30.20 in 2.5 mi WNW 8.1 mph - N/A   Haze
10:55 AM 32.0 °F 25.6 °F 17.6 °F 55% 30.21 in 2.0 mi WSW 6.9 mph - N/A   Haze
11:15 AM 32.0 °F 25.6 °F 17.6 °F 55% 30.21 in 2.5 mi WSW 6.9 mph - N/A   Haze
11:35 AM 32.0 °F 27.5 °F 17.6 °F 55% 30.20 in 2.0 mi WSW 4.6 mph - N/A   Haze
11:55 AM 33.8 °F 28.6 °F 17.6 °F 52% 30.20 in 1.8 mi West 5.8 mph - N/A   Haze
12:15 PM 35.6 °F 29.9 °F 17.6 °F 48% 30.19 in 2.0 mi West 6.9 mph - N/A   Haze
12:35 PM 35.6 °F 29.2 °F 17.6 °F 48% 30.19 in 2.0 mi West 8.1 mph - N/A   Haze
12:55 PM 35.6 °F 30.7 °F 15.8 °F 44% 30.19 in 1.5 mi SSW 5.8 mph - N/A   Haze
1:15 PM 35.6 °F 29.9 °F 15.8 °F 44% 30.18 in 1.5 mi South 6.9 mph - N/A   Haze
1:35 PM 37.4 °F 32.1 °F 15.8 °F 41% 30.17 in 2.0 mi WSW 6.9 mph - N/A   Haze
1:55 PM 37.4 °F 32.8 °F 15.8 °F 41% 30.16 in 1.5 mi SW 5.8 mph - N/A   Haze
2:15 PM 37.4 °F 34.9 °F 14.0 °F 38% 30.15 in 1.5 mi West 3.5 mph - N/A   Haze
2:35 PM 37.4 °F 33.8 °F 15.8 °F 41% 30.15 in 2.0 mi West 4.6 mph - N/A   Haze
2:55 PM 37.4 °F 33.8 °F 15.8 °F 41% 30.14 in 2.0 mi West 4.6 mph - N/A   Haze
3:15 PM 37.4 °F 34.9 °F 15.8 °F 41% 30.14 in 1.5 mi WNW 3.5 mph - N/A   Haze
3:35 PM 37.4 °F 32.8 °F 15.8 °F 41% 30.13 in 1.5 mi WNW 5.8 mph - N/A   Haze
3:55 PM 35.6 °F 30.7 °F 15.8 °F 44% 30.12 in 1.5 mi WNW 5.8 mph - N/A   Haze
4:15 PM 35.6 °F 30.7 °F 17.6 °F 48% 30.11 in 1.0 mi NW 5.8 mph - N/A   Haze
4:35 PM 35.6 °F 31.7 °F 17.6 °F 48% 30.12 in 0.8 mi NW 4.6 mph - N/A   Haze
4:55 PM 33.8 °F 30.8 °F 19.4 °F 56% 30.12 in 0.5 mi NNW 3.5 mph - N/A   Haze
5:15 PM 32.0 °F 28.7 °F 19.4 °F 60% 30.12 in 0.5 mi NNW 3.5 mph - N/A   Haze
5:35 PM 32.0 °F - 19.4 °F 60% 30.12 in 1.0 mi Calm Calm - N/A   Haze
5:55 PM 32.0 °F - 19.4 °F 60% 30.13 in 1.0 mi Calm Calm - N/A   Haze
6:15 PM 32.0 °F - 17.6 °F 55% 30.13 in 1.2 mi Calm Calm - N/A   Haze
6:35 PM 32.0 °F - 19.4 °F 60% 30.14 in 1.2 mi Calm Calm - N/A   Haze
6:55 PM 32.0 °F - 21.2 °F 64% 30.14 in 1.2 mi Calm Calm - N/A   Haze
7:15 PM 32.0 °F - 19.4 °F 60% 30.14 in 1.2 mi Calm Calm - N/A   Haze
7:35 PM 32.0 °F - 19.4 °F 60% 30.14 in 1.2 mi Calm Calm - N/A   Haze
7:55 PM 32.0 °F 28.7 °F 19.4 °F 60% 30.14 in 1.8 mi SW 3.5 mph - N/A   Haze
8:15 PM 32.0 °F 27.5 °F 19.4 °F 60% 30.13 in 1.8 mi SW 4.6 mph - N/A   Haze
8:35 PM 30.2 °F 25.4 °F 19.4 °F 64% 30.13 in 2.0 mi WSW 4.6 mph - N/A   Haze
8:55 PM 30.2 °F 25.4 °F 21.2 °F 69% 30.13 in 2.5 mi WSW 4.6 mph - N/A   Haze
9:15 PM 28.4 °F 23.3 °F 23.0 °F 80% 30.13 in 2.0 mi West 4.6 mph - N/A   Haze
9:35 PM 28.4 °F 21.2 °F 23.0 °F 80% 30.13 in 4.0 mi West 6.9 mph - N/A   Haze
9:55 PM 26.6 °F 20.0 °F 23.0 °F 86% 30.13 in 5.0 mi West 5.8 mph - N/A   Haze
10:15 PM 26.6 °F 18.2 °F 23.0 °F 86% 30.13 in 5.0 mi West 8.1 mph - N/A   Clear
10:35 PM 26.6 °F 18.2 °F 21.2 °F 80% 30.13 in 5.0 mi West 8.1 mph - N/A   Haze
10:55 PM 24.8 °F 16.9 °F 21.2 °F 86% 30.13 in 5.0 mi West 6.9 mph - N/A   Clear
11:15 PM 24.8 °F 17.9 °F 21.2 °F 86% 30.13 in 3.0 mi West 5.8 mph - N/A   Clear
11:35 PM 24.8 °F 20.5 °F 23.0 °F 93% 30.12 in 2.5 mi WNW 3.5 mph - N/A   Clear
11:55 PM 24.8 °F 20.5 °F 21.2 °F 86% 30.12 in 1.0 mi WNW 3.5 mph - N/A   Clear